Jennersdorf, Austria
Current Conditions -  °F | °C
As of 9:50 AM on Monday 20 Oct 2014 (Local Time) from LOWG Reporting Station
Clear Clear  
Wind Chill: 54°   Ceiling: Unl
Heat Index: 54°   Visibility: 6mi
Dew Point: 50°   Wind: 1mph
Humidity: 88%   Direction: NA
Pressure: 30.12"   Gusts: NA
Location:  46.94°N, 16.13°E
Report Text: LOWG 200750Z VRB01KT CAVOK 12/10 Q1020 NOSIG
Loading
Personal Weather Stations






























Interactive Weather Map
Tropical Storm Tracking
New forecast layout! Learn more

10-Day Weather Forecast

Advertisements
Track Severe Weather on mobile